createdAt,value
2023-04-01T00:00:34.351Z,526.00
2023-04-01T00:01:34.375Z,531.00
2023-04-01T00:02:34.408Z,536.00
2023-04-01T00:03:34.534Z,532.00
2023-04-01T00:04:34.414Z,543.00
2023-04-01T00:05:34.591Z,555.00
2023-04-01T00:06:34.373Z,546.00
2023-04-01T00:07:34.385Z,546.00
2023-04-01T00:08:34.389Z,546.00
2023-04-01T00:09:34.414Z,533.00
2023-04-01T00:10:34.683Z,554.00
2023-04-01T00:11:34.369Z,543.00
2023-04-01T00:12:34.370Z,543.00
2023-04-01T00:13:34.393Z,555.00
2023-04-01T00:14:34.394Z,541.00
2023-04-01T00:15:34.544Z,545.00
2023-04-01T00:16:34.427Z,563.00
2023-04-01T00:17:34.432Z,548.00
2023-04-01T00:18:34.393Z,550.00
2023-04-01T00:19:34.391Z,537.00
2023-04-01T00:20:34.404Z,535.00
2023-04-01T00:21:34.411Z,547.00
2023-04-01T00:22:34.387Z,534.00
2023-04-01T00:23:34.407Z,538.00
2023-04-01T00:24:34.394Z,544.00
2023-04-01T00:25:34.677Z,543.00
2023-04-01T00:26:34.413Z,544.00
2023-04-01T00:27:34.397Z,535.00
2023-04-01T00:28:34.403Z,552.00
2023-04-01T00:29:34.405Z,543.00
2023-04-01T00:30:34.405Z,540.00
2023-04-01T00:31:34.443Z,548.00
2023-04-01T00:32:34.538Z,562.00
2023-04-01T00:33:34.441Z,545.00
2023-04-01T00:34:34.429Z,551.00
2023-04-01T00:35:34.609Z,556.00
2023-04-01T00:36:34.450Z,558.00
2023-04-01T00:37:34.439Z,564.00
2023-04-01T00:38:34.459Z,567.00
2023-04-01T00:39:34.442Z,567.00
2023-04-01T00:40:34.445Z,570.00
2023-04-01T00:41:34.470Z,568.00
2023-04-01T00:42:34.418Z,574.00
2023-04-01T00:43:34.454Z,576.00
2023-04-01T00:44:34.451Z,594.00
2023-04-01T00:45:34.574Z,582.00
2023-04-01T00:46:34.479Z,586.00
2023-04-01T00:47:34.506Z,588.00
2023-04-01T00:48:34.476Z,589.00
2023-04-01T00:49:34.447Z,590.00
2023-04-01T00:50:34.438Z,591.00
2023-04-01T00:51:34.424Z,604.00
2023-04-01T00:52:34.441Z,597.00
2023-04-01T00:53:34.428Z,601.00
2023-04-01T00:54:34.428Z,609.00
2023-04-01T00:55:34.494Z,611.00
2023-04-01T00:56:34.448Z,606.00
2023-04-01T00:57:34.506Z,606.00
2023-04-01T00:58:34.451Z,601.00
2023-04-01T00:59:34.451Z,601.00
2023-04-01T01:00:34.473Z,603.00
2023-04-01T01:01:34.453Z,606.00
2023-04-01T01:02:34.531Z,611.00
2023-04-01T01:03:34.444Z,612.00
2023-04-01T01:04:34.461Z,602.00
2023-04-01T01:05:42.609Z,607.00
2023-04-01T01:06:35.472Z,607.00
2023-04-01T01:07:34.444Z,607.00
2023-04-01T01:08:34.420Z,607.00
2023-04-01T01:09:34.450Z,604.00
2023-04-01T01:10:34.406Z,594.00
2023-04-01T01:11:42.537Z,604.00
2023-04-01T01:12:35.401Z,604.00
2023-04-01T01:13:34.399Z,604.00
2023-04-01T01:14:34.383Z,605.00
2023-04-01T01:15:34.387Z,593.00
2023-04-01T01:16:34.404Z,585.00
2023-04-01T01:17:34.404Z,592.00
2023-04-01T01:18:34.363Z,603.00
2023-04-01T01:19:34.355Z,594.00
2023-04-01T01:20:34.337Z,594.00
2023-04-01T01:21:34.317Z,601.00
2023-04-01T01:22:34.342Z,603.00
2023-04-01T01:23:34.304Z,594.00
2023-04-01T01:24:34.320Z,579.00
2023-04-01T01:25:34.530Z,582.00
2023-04-01T01:26:34.309Z,581.00
2023-04-01T01:27:34.286Z,583.00
2023-04-01T01:28:34.271Z,580.00
2023-04-01T01:29:34.266Z,588.00
2023-04-01T01:30:34.302Z,587.00
2023-04-01T01:31:34.250Z,600.00
2023-04-01T01:32:34.268Z,605.00
2023-04-01T01:33:34.232Z,602.00
2023-04-01T01:34:34.240Z,608.00
2023-04-01T01:35:34.445Z,603.00
2023-04-01T01:36:34.245Z,603.00
2023-04-01T01:37:34.228Z,601.00
2023-04-01T01:38:34.206Z,603.00
2023-04-01T01:39:34.335Z,596.00
2023-04-01T01:40:34.201Z,596.00
2023-04-01T01:41:34.189Z,596.00
2023-04-01T01:42:34.187Z,595.00
2023-04-01T01:43:34.185Z,596.00
2023-04-01T01:44:34.155Z,600.00
2023-04-01T01:45:34.260Z,593.00
2023-04-01T01:46:34.202Z,593.00
2023-04-01T01:47:34.157Z,603.00
2023-04-01T01:48:34.137Z,608.00
2023-04-01T01:49:34.125Z,612.00
2023-04-01T01:50:34.110Z,621.00
2023-04-01T01:51:34.112Z,631.00
2023-04-01T01:52:34.127Z,620.00
2023-04-01T01:53:34.129Z,619.00
2023-04-01T01:54:34.119Z,619.00
2023-04-01T01:55:34.515Z,624.00
2023-04-01T01:56:34.143Z,632.00
2023-04-01T01:57:34.169Z,635.00
2023-04-01T01:58:34.143Z,635.00
2023-04-01T01:59:34.143Z,633.00
2023-04-01T02:00:34.133Z,633.00
2023-04-01T02:01:34.237Z,627.00
2023-04-01T02:02:34.173Z,631.00
2023-04-01T02:03:34.142Z,621.00
2023-04-01T02:04:34.214Z,629.00
2023-04-01T02:05:34.513Z,627.00
2023-04-01T02:06:34.141Z,627.00
2023-04-01T02:07:34.213Z,629.00
2023-04-01T02:08:34.141Z,628.00
2023-04-01T02:09:34.154Z,626.00
2023-04-01T02:10:34.161Z,623.00
2023-04-01T02:11:34.156Z,620.00
2023-04-01T02:12:34.160Z,623.00
2023-04-01T02:13:34.148Z,625.00
2023-04-01T02:14:34.183Z,624.00
2023-04-01T02:15:34.313Z,617.00
2023-04-01T02:16:34.166Z,615.00
2023-04-01T02:17:34.173Z,616.00
2023-04-01T02:18:34.207Z,620.00
2023-04-01T02:19:34.176Z,622.00
2023-04-01T02:20:34.209Z,620.00
2023-04-01T02:21:34.172Z,623.00
2023-04-01T02:22:34.176Z,616.00
2023-04-01T02:23:34.178Z,619.00
2023-04-01T02:24:34.220Z,615.00
2023-04-01T02:25:34.385Z,616.00
2023-04-01T02:26:34.206Z,614.00
2023-04-01T02:27:34.202Z,607.00
2023-04-01T02:28:34.234Z,594.00
2023-04-01T02:29:34.231Z,604.00
2023-04-01T02:30:34.218Z,616.00
2023-04-01T02:31:34.311Z,606.00
2023-04-01T02:32:34.392Z,608.00
2023-04-01T02:33:34.235Z,615.00
2023-04-01T02:34:34.254Z,612.00
2023-04-01T02:35:34.395Z,617.00
2023-04-01T02:36:34.254Z,613.00
2023-04-01T02:37:35.971Z,625.00
2023-04-01T02:38:34.258Z,617.00
2023-04-01T02:39:34.246Z,628.00
2023-04-01T02:40:34.270Z,627.00
2023-04-01T02:41:34.237Z,627.00
2023-04-01T02:42:34.230Z,624.00
2023-04-01T02:43:34.250Z,625.00
2023-04-01T02:44:34.230Z,630.00
2023-04-01T02:45:34.386Z,632.00
2023-04-01T02:46:34.235Z,624.00
2023-04-01T02:47:34.250Z,629.00
2023-04-01T02:48:34.180Z,617.00
2023-04-01T02:49:34.189Z,627.00
2023-04-01T02:50:34.168Z,635.00
2023-04-01T02:51:34.176Z,644.00
2023-04-01T02:52:34.157Z,641.00
2023-04-01T02:53:34.148Z,639.00
2023-04-01T02:54:34.168Z,638.00
2023-04-01T02:55:34.294Z,643.00
2023-04-01T02:56:34.148Z,646.00
2023-04-01T02:57:34.198Z,632.00
2023-04-01T02:58:34.121Z,629.00
2023-04-01T02:59:34.120Z,626.00
2023-04-01T03:00:34.113Z,636.00
2023-04-01T03:01:34.158Z,636.00
2023-04-01T03:02:34.151Z,631.00
2023-04-01T03:03:34.108Z,637.00
2023-04-01T03:04:34.077Z,639.00
2023-04-01T03:05:34.245Z,644.00
2023-04-01T03:06:34.092Z,638.00
2023-04-01T03:07:34.046Z,633.00
2023-04-01T03:08:34.039Z,627.00
2023-04-01T03:09:34.056Z,632.00
2023-04-01T03:10:34.039Z,638.00
2023-04-01T03:11:34.041Z,638.00
2023-04-01T03:12:34.028Z,635.00
2023-04-01T03:13:34.020Z,644.00
2023-04-01T03:14:34.004Z,645.00
2023-04-01T03:15:34.288Z,644.00
2023-04-01T03:16:34.086Z,644.00
2023-04-01T03:17:34.025Z,644.00
2023-04-01T03:18:33.986Z,639.00
2023-04-01T03:19:33.972Z,635.00
2023-04-01T03:20:33.960Z,636.00
2023-04-01T03:21:33.982Z,644.00
2023-04-01T03:22:33.942Z,638.00
2023-04-01T03:23:33.954Z,631.00
2023-04-01T03:24:33.958Z,630.00
2023-04-01T03:25:34.122Z,642.00
2023-04-01T03:26:33.916Z,637.00
2023-04-01T03:27:33.917Z,639.00
2023-04-01T03:28:33.914Z,631.00
2023-04-01T03:29:33.885Z,629.00
2023-04-01T03:30:33.931Z,642.00
2023-04-01T03:31:33.979Z,637.00
2023-04-01T03:32:33.895Z,629.00
2023-04-01T03:33:33.863Z,631.00
2023-04-01T03:34:33.868Z,631.00
2023-04-01T03:35:34.146Z,638.00
2023-04-01T03:36:33.956Z,634.00
2023-04-01T03:37:33.845Z,638.00
2023-04-01T03:38:33.831Z,640.00
2023-04-01T03:39:33.837Z,637.00
2023-04-01T03:40:33.832Z,634.00
2023-04-01T03:41:33.798Z,629.00
2023-04-01T03:42:33.852Z,627.00
2023-04-01T03:43:33.795Z,624.00
2023-04-01T03:44:33.786Z,628.00
2023-04-01T03:45:33.949Z,633.00
2023-04-01T03:46:33.779Z,640.00
2023-04-01T03:47:33.791Z,638.00
2023-04-01T03:48:33.741Z,644.00
2023-04-01T03:49:33.764Z,636.00
2023-04-01T03:50:33.729Z,641.00
2023-04-01T03:51:33.747Z,643.00
2023-04-01T03:52:33.729Z,643.00
2023-04-01T03:53:33.729Z,642.00
2023-04-01T03:54:33.709Z,644.00
2023-04-01T03:55:34.024Z,647.00
2023-04-01T03:56:33.695Z,651.00
2023-04-01T03:57:33.757Z,657.00
2023-04-01T03:58:33.695Z,656.00
2023-04-01T03:59:33.702Z,651.00
2023-04-01T04:00:33.668Z,650.00
2023-04-01T04:01:33.676Z,644.00
2023-04-01T04:02:33.764Z,644.00
2023-04-01T04:03:33.761Z,649.00
2023-04-01T04:04:33.719Z,645.00
2023-04-01T04:05:33.854Z,648.00
2023-04-01T04:06:33.651Z,637.00
2023-04-01T04:07:33.620Z,636.00
2023-04-01T04:08:33.642Z,640.00
2023-04-01T04:09:33.629Z,633.00
2023-04-01T04:10:33.620Z,642.00
2023-04-01T04:11:33.603Z,647.00
2023-04-01T04:12:33.611Z,656.00
2023-04-01T04:13:33.580Z,643.00
2023-04-01T04:14:33.591Z,637.00
2023-04-01T04:15:33.879Z,643.00
2023-04-01T04:16:33.594Z,653.00
2023-04-01T04:17:33.578Z,651.00
2023-04-01T04:18:33.546Z,656.00
2023-04-01T04:19:33.560Z,660.00
2023-04-01T04:20:33.535Z,659.00
2023-04-01T04:21:33.540Z,660.00
2023-04-01T04:22:33.514Z,658.00
2023-04-01T04:23:33.523Z,662.00
2023-04-01T04:24:33.504Z,664.00
2023-04-01T04:25:33.720Z,663.00
2023-04-01T04:26:33.507Z,663.00
2023-04-01T04:27:33.476Z,662.00
2023-04-01T04:28:33.465Z,662.00
2023-04-01T04:29:33.469Z,663.00
2023-04-01T04:30:33.506Z,668.00
2023-04-01T04:31:33.525Z,670.00
2023-04-01T04:32:33.456Z,675.00
2023-04-01T04:33:33.454Z,672.00
2023-04-01T04:34:33.438Z,664.00
2023-04-01T04:35:33.605Z,673.00
2023-04-01T04:36:33.405Z,667.00
2023-04-01T04:37:33.416Z,675.00
2023-04-01T04:38:33.394Z,672.00
2023-04-01T04:39:33.391Z,670.00
2023-04-01T04:40:33.384Z,672.00
2023-04-01T04:41:34.151Z,668.00
2023-04-01T04:42:33.390Z,666.00
2023-04-01T04:43:33.374Z,664.00
2023-04-01T04:44:33.401Z,672.00
2023-04-01T04:45:33.531Z,682.00
2023-04-01T04:46:33.372Z,670.00
2023-04-01T04:47:33.401Z,669.00
2023-04-01T04:48:33.329Z,674.00
2023-04-01T04:49:33.357Z,687.00
2023-04-01T04:50:33.317Z,667.00
2023-04-01T04:51:33.310Z,683.00
2023-04-01T04:52:33.318Z,678.00
2023-04-01T04:53:33.313Z,680.00
2023-04-01T04:54:33.325Z,699.00
2023-04-01T04:55:33.430Z,682.00
2023-04-01T04:56:33.291Z,694.00
2023-04-01T04:57:33.325Z,687.00
2023-04-01T04:58:33.267Z,692.00
2023-04-01T04:59:33.262Z,679.00
2023-04-01T05:00:33.254Z,681.00
2023-04-01T05:01:33.269Z,687.00
2023-04-01T05:02:33.347Z,684.00
2023-04-01T05:03:33.334Z,692.00
2023-04-01T05:04:33.223Z,689.00
2023-04-01T05:05:33.408Z,683.00
2023-04-01T05:06:33.222Z,689.00
2023-04-01T05:07:33.220Z,702.00
2023-04-01T05:08:33.205Z,700.00
2023-04-01T05:09:33.192Z,705.00
2023-04-01T05:10:33.188Z,719.00
2023-04-01T05:11:33.182Z,709.00
2023-04-01T05:12:33.184Z,723.00
2023-04-01T05:13:33.165Z,725.00
2023-04-01T05:14:33.173Z,711.00
2023-04-01T05:15:33.330Z,736.00
2023-04-01T05:16:33.161Z,727.00
2023-04-01T05:17:33.169Z,726.00
2023-04-01T05:18:33.142Z,728.00
2023-04-01T05:19:33.126Z,738.00
2023-04-01T05:20:33.128Z,720.00
2023-04-01T05:21:33.109Z,748.00
2023-04-01T05:22:33.111Z,746.00
2023-04-01T05:23:33.122Z,755.00
2023-04-01T05:24:33.101Z,734.00
2023-04-01T05:25:33.257Z,755.00
2023-04-01T05:26:33.114Z,763.00
2023-04-01T05:27:33.132Z,747.00
2023-04-01T05:28:33.145Z,756.00
2023-04-01T05:29:33.122Z,763.00
2023-04-01T05:30:33.122Z,773.00
2023-04-01T05:31:33.144Z,766.00
2023-04-01T05:32:33.187Z,771.00
2023-04-01T05:33:33.144Z,774.00
2023-04-01T05:34:33.140Z,784.00
2023-04-01T05:35:33.312Z,776.00
2023-04-01T05:36:33.147Z,802.00
2023-04-01T05:37:33.159Z,780.00
2023-04-01T05:38:33.159Z,796.00
2023-04-01T05:39:33.153Z,801.00
2023-04-01T05:40:33.157Z,793.00
2023-04-01T05:41:33.170Z,798.00
2023-04-01T05:42:33.180Z,801.00
2023-04-01T05:43:33.166Z,790.00
2023-04-01T05:44:33.201Z,797.00
2023-04-01T05:45:33.290Z,797.00
2023-04-01T05:46:33.238Z,813.00
2023-04-01T05:47:33.209Z,810.00
2023-04-01T05:48:33.183Z,832.00
2023-04-01T05:49:33.211Z,826.00
2023-04-01T05:50:33.214Z,820.00
2023-04-01T05:51:33.199Z,808.00
2023-04-01T05:52:33.192Z,802.00
2023-04-01T05:53:33.190Z,819.00
2023-04-01T05:54:33.190Z,806.00
2023-04-01T05:55:33.429Z,809.00
2023-04-01T05:56:33.225Z,809.00
2023-04-01T05:57:33.236Z,793.00
2023-04-01T05:58:33.204Z,801.00
2023-04-01T05:59:33.198Z,798.00
2023-04-01T06:00:33.213Z,812.00
2023-04-01T06:01:33.230Z,804.00
2023-04-01T06:02:33.304Z,807.00
2023-04-01T06:03:33.355Z,810.00
2023-04-01T06:04:33.268Z,815.00
2023-04-01T06:05:33.488Z,808.00
2023-04-01T06:06:33.226Z,813.00
2023-04-01T06:07:33.227Z,806.00
2023-04-01T06:08:33.230Z,813.00
2023-04-01T06:09:33.277Z,825.00
2023-04-01T06:10:33.241Z,818.00
2023-04-01T06:11:33.278Z,826.00
2023-04-01T06:12:33.275Z,830.00
2023-04-01T06:13:33.283Z,816.00
2023-04-01T06:14:33.294Z,842.00
2023-04-01T06:15:33.423Z,831.00
2023-04-01T06:16:33.306Z,826.00
2023-04-01T06:17:33.291Z,829.00
2023-04-01T06:18:33.291Z,838.00
2023-04-01T06:19:33.336Z,834.00
2023-04-01T06:20:33.360Z,844.00
2023-04-01T06:21:33.379Z,830.00
2023-04-01T06:22:33.385Z,832.00
2023-04-01T06:23:33.401Z,841.00
2023-04-01T06:24:33.438Z,848.00
2023-04-01T06:25:33.668Z,844.00
2023-04-01T06:26:33.490Z,853.00
2023-04-01T06:27:33.534Z,836.00
2023-04-01T06:28:33.585Z,838.00
2023-04-01T06:29:33.639Z,842.00
2023-04-01T06:30:33.649Z,836.00
2023-04-01T06:31:33.762Z,825.00
2023-04-01T06:32:33.861Z,821.00
2023-04-01T06:33:33.818Z,821.00
2023-04-01T06:34:33.867Z,797.00
2023-04-01T06:35:34.052Z,808.00
2023-04-01T06:36:33.930Z,818.00
2023-04-01T06:37:33.942Z,821.00
2023-04-01T06:38:33.943Z,834.00
2023-04-01T06:39:34.001Z,830.00
2023-04-01T06:40:34.023Z,838.00
2023-04-01T06:41:34.045Z,830.00
2023-04-01T06:42:34.089Z,827.00
2023-04-01T06:43:34.124Z,834.00
2023-04-01T06:44:34.174Z,854.00
2023-04-01T06:45:34.459Z,808.00
2023-04-01T06:46:34.212Z,816.00
2023-04-01T06:47:34.263Z,823.00
2023-04-01T06:48:34.290Z,833.00
2023-04-01T06:49:34.347Z,818.00
2023-04-01T06:50:34.328Z,819.00
2023-04-01T06:51:34.368Z,839.00
2023-04-01T06:52:34.397Z,839.00
2023-04-01T06:53:34.390Z,822.00
2023-04-01T06:54:34.454Z,797.00
2023-04-01T06:55:34.799Z,817.00
2023-04-01T06:56:34.498Z,837.00
2023-04-01T06:57:34.560Z,854.00
2023-04-01T06:58:34.611Z,869.00
2023-04-01T06:59:34.660Z,859.00
2023-04-01T07:00:34.728Z,848.00
2023-04-01T07:01:34.798Z,802.00
2023-04-01T07:02:34.842Z,829.00
2023-04-01T07:03:34.818Z,878.00
2023-04-01T07:04:34.858Z,877.00
2023-04-01T07:05:34.972Z,893.00
2023-04-01T07:06:34.867Z,934.00
2023-04-01T07:07:34.902Z,980.00
2023-04-01T07:08:34.913Z,1029.00
2023-04-01T07:09:34.951Z,1048.00
2023-04-01T07:10:35.057Z,1034.00
2023-04-01T07:11:35.005Z,1000.00
2023-04-01T07:12:35.039Z,968.00
2023-04-01T07:13:35.068Z,973.00
2023-04-01T07:14:35.109Z,924.00
2023-04-01T07:15:35.331Z,923.00
2023-04-01T07:16:35.229Z,902.00
2023-04-01T07:17:35.312Z,894.00
2023-04-01T07:18:35.285Z,866.00
2023-04-01T07:19:35.268Z,865.00
2023-04-01T07:20:35.294Z,837.00
2023-04-01T07:21:35.245Z,839.00
2023-04-01T07:22:35.257Z,838.00
2023-04-01T07:23:35.240Z,843.00
2023-04-01T07:24:35.253Z,853.00
2023-04-01T07:25:35.640Z,825.00
2023-04-01T07:26:35.242Z,837.00
2023-04-01T07:27:35.215Z,819.00
2023-04-01T07:28:35.377Z,793.00
2023-04-01T07:29:35.219Z,779.00
2023-04-01T07:30:35.191Z,774.00
2023-04-01T07:31:35.321Z,761.00
2023-04-01T07:32:36.289Z,747.00
2023-04-01T07:33:35.189Z,766.00
2023-04-01T07:34:35.263Z,758.00
2023-04-01T07:35:35.437Z,731.00
2023-04-01T07:36:35.154Z,726.00
2023-04-01T07:37:35.148Z,739.00
2023-04-01T07:38:35.172Z,730.00
2023-04-01T07:39:35.150Z,709.00
2023-04-01T07:40:35.165Z,721.00
2023-04-01T07:41:35.135Z,724.00
2023-04-01T07:42:35.115Z,724.00
2023-04-01T07:43:35.121Z,740.00
2023-04-01T07:44:35.112Z,727.00
2023-04-01T07:45:35.392Z,707.00
2023-04-01T07:46:35.115Z,725.00
2023-04-01T07:47:35.148Z,718.00
2023-04-01T07:48:35.083Z,676.00
2023-04-01T07:49:35.068Z,703.00
2023-04-01T07:50:35.118Z,667.00
2023-04-01T07:51:35.174Z,666.00
2023-04-01T07:52:35.223Z,698.00
2023-04-01T07:53:35.265Z,657.00
2023-04-01T07:54:35.279Z,651.00
2023-04-01T07:55:35.647Z,701.00
2023-04-01T07:56:35.303Z,717.00
2023-04-01T07:57:35.343Z,748.00
2023-04-01T07:58:35.399Z,801.00
2023-04-01T07:59:35.410Z,812.00
2023-04-01T08:00:35.496Z,912.00
2023-04-01T08:01:35.533Z,976.00
2023-04-01T08:02:35.604Z,984.00
2023-04-01T08:03:35.700Z,944.00
2023-04-01T08:04:35.666Z,940.00
2023-04-01T08:05:35.828Z,964.00
2023-04-01T08:06:35.669Z,965.00
2023-04-01T08:07:35.700Z,973.00
2023-04-01T08:08:35.712Z,971.00
2023-04-01T08:09:35.716Z,1004.00
2023-04-01T08:10:35.728Z,1006.00
2023-04-01T08:11:35.718Z,980.00
2023-04-01T08:12:35.756Z,978.00
2023-04-01T08:13:35.769Z,899.00
2023-04-01T08:14:35.825Z,841.00
2023-04-01T08:15:36.009Z,815.00
2023-04-01T08:16:35.993Z,755.00
2023-04-01T08:17:36.037Z,700.00
2023-04-01T08:18:36.036Z,663.00
2023-04-01T08:19:36.089Z,631.00
2023-04-01T08:20:36.155Z,633.00
2023-04-01T08:21:36.176Z,638.00
2023-04-01T08:22:36.218Z,641.00
2023-04-01T08:23:36.232Z,655.00
2023-04-01T08:24:46.479Z,647.00
2023-04-01T08:25:37.265Z,605.00
2023-04-01T08:26:36.262Z,564.00
2023-04-01T08:27:36.249Z,551.00
2023-04-01T08:28:36.254Z,525.00
2023-04-01T08:29:36.227Z,528.00
2023-04-01T08:30:36.227Z,500.00
2023-04-01T08:31:36.242Z,500.00
2023-04-01T08:32:36.264Z,497.00
2023-04-01T08:33:36.197Z,497.00
2023-04-01T08:34:36.220Z,487.00
2023-04-01T08:35:38.427Z,521.00
2023-04-01T08:36:36.444Z,500.00
2023-04-01T08:37:36.462Z,510.00
2023-04-01T08:38:36.447Z,560.00
2023-04-01T08:39:36.459Z,551.00
2023-04-01T08:40:36.480Z,493.00
2023-04-01T08:41:36.477Z,500.00
2023-04-01T08:42:36.502Z,511.00
2023-04-01T08:43:36.545Z,551.00
2023-04-01T08:44:36.583Z,578.00
2023-04-01T08:45:36.737Z,560.00
2023-04-01T08:46:36.651Z,531.00
2023-04-01T08:47:36.748Z,565.00
2023-04-01T08:48:36.758Z,582.00
2023-04-01T08:49:36.791Z,577.00
2023-04-01T08:50:36.843Z,553.00
2023-04-01T08:51:36.889Z,539.00
2023-04-01T08:52:36.975Z,529.00
2023-04-01T08:53:36.982Z,548.00
2023-04-01T08:54:37.052Z,571.00
2023-04-01T08:55:37.097Z,626.00
2023-04-01T08:56:37.159Z,607.00
2023-04-01T08:57:37.214Z,606.00
2023-04-01T08:58:37.233Z,635.00
2023-04-01T08:59:37.310Z,655.00
2023-04-01T09:00:37.344Z,639.00
2023-04-01T09:01:37.377Z,625.00
2023-04-01T09:02:37.482Z,616.00
2023-04-01T09:03:37.566Z,620.00
2023-04-01T09:04:37.597Z,650.00
2023-04-01T09:05:37.583Z,633.00
2023-04-01T09:06:37.632Z,638.00
2023-04-01T09:07:37.672Z,620.00
2023-04-01T09:08:37.708Z,585.00
2023-04-01T09:09:37.757Z,589.00
2023-04-01T09:10:37.802Z,634.00
2023-04-01T09:11:37.862Z,619.00
2023-04-01T09:12:37.904Z,615.00
2023-04-01T09:13:37.943Z,598.00
2023-04-01T09:14:37.988Z,608.00
2023-04-01T09:15:38.055Z,584.00
2023-04-01T09:16:38.048Z,603.00
2023-04-01T09:17:38.082Z,599.00
2023-04-01T09:18:38.103Z,602.00
2023-04-01T09:19:38.141Z,590.00
2023-04-01T09:20:38.177Z,618.00
2023-04-01T09:21:38.211Z,585.00
2023-04-01T09:22:38.265Z,536.00
2023-04-01T09:23:38.278Z,545.00
2023-04-01T09:24:38.273Z,576.00
2023-04-01T09:25:38.303Z,582.00
2023-04-01T09:26:38.342Z,589.00
2023-04-01T09:27:38.375Z,542.00
2023-04-01T09:28:38.387Z,622.00
2023-04-01T09:29:38.430Z,571.00
2023-04-01T09:30:38.448Z,594.00
2023-04-01T09:31:38.504Z,625.00
2023-04-01T09:32:38.539Z,604.00
2023-04-01T09:33:38.547Z,586.00
2023-04-01T09:34:38.600Z,581.00
2023-04-01T09:35:38.662Z,618.00
2023-04-01T09:36:38.652Z,625.00
2023-04-01T09:37:38.668Z,632.00
2023-04-01T09:38:38.715Z,603.00
2023-04-01T09:39:38.771Z,622.00
2023-04-01T09:40:38.763Z,612.00
2023-04-01T09:41:38.799Z,604.00
2023-04-01T09:42:38.849Z,636.00
2023-04-01T09:43:38.920Z,609.00
2023-04-01T09:44:39.130Z,571.00
2023-04-01T09:45:38.937Z,574.00
2023-04-01T09:46:39.027Z,559.00
2023-04-01T09:47:39.035Z,587.00
2023-04-01T09:48:39.012Z,611.00
2023-04-01T09:49:39.060Z,615.00
2023-04-01T09:50:39.059Z,588.00
2023-04-01T09:51:39.061Z,586.00
2023-04-01T09:52:39.076Z,586.00
2023-04-01T09:53:39.092Z,604.00
2023-04-01T09:54:39.121Z,572.00
2023-04-01T09:55:39.151Z,570.00
2023-04-01T09:56:39.161Z,530.00
2023-04-01T09:57:39.185Z,532.00
2023-04-01T09:58:43.721Z,564.00
2023-04-01T09:59:40.196Z,564.00
2023-04-01T10:00:39.196Z,568.00
2023-04-01T10:01:39.294Z,578.00
2023-04-01T10:02:39.216Z,568.00
2023-04-01T10:03:39.180Z,558.00
2023-04-01T10:04:39.180Z,611.00
2023-04-01T10:05:39.183Z,575.00
2023-04-01T10:06:39.153Z,536.00
2023-04-01T10:07:39.146Z,558.00
2023-04-01T10:08:39.119Z,521.00
2023-04-01T10:09:39.116Z,529.00
2023-04-01T10:10:39.106Z,572.00
2023-04-01T10:11:39.103Z,521.00
2023-04-01T10:12:39.091Z,575.00
2023-04-01T10:13:39.106Z,522.00
2023-04-01T10:14:39.088Z,491.00
2023-04-01T10:15:39.202Z,500.00
2023-04-01T10:16:39.174Z,489.00
2023-04-01T10:17:39.131Z,569.00
2023-04-01T10:18:39.060Z,587.00
2023-04-01T10:19:39.038Z,587.00
2023-04-01T10:20:39.046Z,566.00
2023-04-01T10:21:39.029Z,595.00
2023-04-01T10:22:39.011Z,648.00
2023-04-01T10:23:39.012Z,630.00
2023-04-01T10:24:38.997Z,584.00
2023-04-01T10:25:39.008Z,600.00
2023-04-01T10:26:39.003Z,587.00
2023-04-01T10:27:38.989Z,575.00
2023-04-01T10:28:38.964Z,596.00
2023-04-01T10:29:38.960Z,571.00
2023-04-01T10:30:38.968Z,585.00
2023-04-01T10:31:38.993Z,623.00
2023-04-01T10:32:38.985Z,548.00
2023-04-01T10:33:38.978Z,559.00
2023-04-01T10:34:38.942Z,596.00
2023-04-01T10:35:38.975Z,556.00
2023-04-01T10:36:38.915Z,536.00
2023-04-01T10:37:38.929Z,574.00
2023-04-01T10:38:38.915Z,585.00
2023-04-01T10:39:38.923Z,585.00
2023-04-01T10:40:38.916Z,590.00
2023-04-01T10:41:38.890Z,560.00
2023-04-01T10:42:38.903Z,560.00
2023-04-01T10:43:38.904Z,554.00
2023-04-01T10:44:38.864Z,612.00
2023-04-01T10:45:38.882Z,591.00
2023-04-01T10:46:38.898Z,592.00
2023-04-01T10:47:38.898Z,574.00
2023-04-01T10:48:38.890Z,569.00
2023-04-01T10:49:38.829Z,605.00
2023-04-01T10:50:38.831Z,625.00
2023-04-01T10:51:38.816Z,603.00
2023-04-01T10:52:38.826Z,632.00
2023-04-01T10:53:38.846Z,676.00
2023-04-01T10:54:38.832Z,634.00
2023-04-01T10:55:38.821Z,618.00
2023-04-01T10:56:38.850Z,587.00
2023-04-01T10:57:38.833Z,613.00
2023-04-01T10:58:38.878Z,634.00
2023-04-01T10:59:38.847Z,640.00
2023-04-01T11:00:38.847Z,599.00
2023-04-01T11:01:38.882Z,601.00
2023-04-01T11:02:38.929Z,589.00
2023-04-01T11:03:38.943Z,609.00
2023-04-01T11:04:38.838Z,576.00
2023-04-01T11:05:38.857Z,661.00
2023-04-01T11:06:38.843Z,611.00
2023-04-01T11:07:38.848Z,589.00
2023-04-01T11:08:38.861Z,602.00
2023-04-01T11:09:38.850Z,637.00
2023-04-01T11:10:38.858Z,622.00
2023-04-01T11:11:38.851Z,579.00
2023-04-01T11:12:38.840Z,571.00
2023-04-01T11:13:38.846Z,634.00
2023-04-01T11:14:38.860Z,634.00
2023-04-01T11:15:38.852Z,606.00
2023-04-01T11:16:38.888Z,652.00
2023-04-01T11:17:38.861Z,657.00
2023-04-01T11:18:38.855Z,651.00
2023-04-01T11:19:38.854Z,624.00
2023-04-01T11:20:38.874Z,625.00
2023-04-01T11:21:38.881Z,614.00
2023-04-01T11:22:38.900Z,650.00
2023-04-01T11:23:38.891Z,646.00
2023-04-01T11:24:38.912Z,686.00
2023-04-01T11:25:38.919Z,717.00
2023-04-01T11:26:38.984Z,658.00
2023-04-01T11:27:39.720Z,654.00
2023-04-01T11:28:39.002Z,678.00
2023-04-01T11:29:42.255Z,662.00
2023-04-01T11:30:40.021Z,653.00
2023-04-01T11:31:39.052Z,655.00
2023-04-01T11:32:39.126Z,645.00
2023-04-01T11:33:38.998Z,664.00
2023-04-01T11:34:38.978Z,667.00
2023-04-01T11:35:38.991Z,643.00
2023-04-01T11:36:39.071Z,651.00
2023-04-01T11:37:38.947Z,664.00
2023-04-01T11:38:38.975Z,663.00
2023-04-01T11:39:38.962Z,688.00
2023-04-01T11:40:38.943Z,669.00
2023-04-01T11:41:38.918Z,706.00
2023-04-01T11:42:38.911Z,715.00
2023-04-01T11:43:38.916Z,693.00
2023-04-01T11:44:38.896Z,674.00
2023-04-01T11:45:38.917Z,675.00
2023-04-01T11:46:38.912Z,692.00
2023-04-01T11:47:38.908Z,701.00
2023-04-01T11:48:38.914Z,652.00
2023-04-01T11:49:38.900Z,694.00
2023-04-01T11:50:38.946Z,784.00
2023-04-01T11:51:38.951Z,673.00
2023-04-01T11:52:39.009Z,736.00
2023-04-01T11:53:39.041Z,697.00
2023-04-01T11:54:39.083Z,699.00
2023-04-01T11:55:39.115Z,703.00
2023-04-01T11:56:39.155Z,762.00
2023-04-01T11:57:39.182Z,783.00
2023-04-01T11:58:39.220Z,762.00
2023-04-01T11:59:39.242Z,804.00
2023-04-01T12:00:39.287Z,837.00
2023-04-01T12:01:39.351Z,796.00
2023-04-01T12:02:39.429Z,817.00
2023-04-01T12:03:39.552Z,729.00
2023-04-01T12:04:39.519Z,818.00
2023-04-01T12:05:39.510Z,777.00
2023-04-01T12:06:39.519Z,754.00
2023-04-01T12:07:39.575Z,783.00
2023-04-01T12:08:39.613Z,754.00
2023-04-01T12:09:39.667Z,697.00
2023-04-01T12:10:39.695Z,770.00
2023-04-01T12:11:39.767Z,793.00
2023-04-01T12:12:45.309Z,752.00
2023-04-01T12:13:40.782Z,756.00
2023-04-01T12:14:39.765Z,756.00
2023-04-01T12:15:39.776Z,779.00
2023-04-01T12:16:39.829Z,792.00
2023-04-01T12:17:39.807Z,830.00
2023-04-01T12:18:39.752Z,789.00
2023-04-01T12:19:39.750Z,825.00
2023-04-01T12:20:39.744Z,851.00
2023-04-01T12:21:39.740Z,831.00
2023-04-01T12:22:39.736Z,790.00
2023-04-01T12:23:39.729Z,801.00
2023-04-01T12:24:39.770Z,854.00
2023-04-01T12:25:39.833Z,821.00
2023-04-01T12:26:39.906Z,846.00
2023-04-01T12:27:39.937Z,896.00
2023-04-01T12:28:39.987Z,910.00